createdAt,value
2018-03-27T00:02:26.088Z,26.30
2018-03-27T00:04:53.720Z,27.13
2018-03-27T00:07:22.037Z,25.17
2018-03-27T00:09:49.622Z,25.47
2018-03-27T00:12:17.203Z,29.00
2018-03-27T00:14:45.622Z,26.10
2018-03-27T00:17:13.292Z,29.27
2018-03-27T00:19:40.868Z,26.13
2018-03-27T00:22:08.435Z,27.00
2018-03-27T00:24:41.865Z,26.27
2018-03-27T00:27:08.953Z,28.47
2018-03-27T00:29:48.440Z,31.43
2018-03-27T00:32:29.220Z,30.83
2018-03-27T00:35:09.415Z,30.37
2018-03-27T00:37:48.665Z,27.27
2018-03-27T00:40:28.373Z,26.40
2018-03-27T00:42:56.752Z,26.60
2018-03-27T00:45:25.076Z,28.07
2018-03-27T00:47:52.634Z,29.17
2018-03-27T00:50:20.201Z,27.20
2018-03-27T00:52:47.741Z,24.97
2018-03-27T00:55:15.422Z,32.67
2018-03-27T00:57:43.056Z,29.17
2018-03-27T01:00:10.625Z,32.63
2018-03-27T01:02:38.292Z,29.50
2018-03-27T01:05:10.794Z,29.93
2018-03-27T01:07:38.368Z,29.07
2018-03-27T01:10:05.911Z,31.67
2018-03-27T01:12:33.477Z,31.67
2018-03-27T01:15:01.141Z,32.57
2018-03-27T01:17:28.779Z,32.33
2018-03-27T01:19:56.325Z,33.40
2018-03-27T01:22:23.885Z,33.67
2018-03-27T01:24:51.437Z,31.37
2018-03-27T01:27:19.030Z,32.60
2018-03-27T01:29:46.577Z,31.10
2018-03-27T01:32:14.264Z,28.50
2018-03-27T01:34:41.769Z,37.80
2018-03-27T01:37:09.334Z,34.07
2018-03-27T01:39:36.900Z,38.53
2018-03-27T01:42:04.468Z,38.63
2018-03-27T01:44:32.018Z,34.37
2018-03-27T01:46:59.601Z,36.07
2018-03-27T01:49:27.150Z,39.43
2018-03-27T01:51:54.696Z,34.83
2018-03-27T01:54:22.268Z,38.70
2018-03-27T01:56:49.830Z,37.83
2018-03-27T01:59:17.394Z,36.70
2018-03-27T02:01:44.958Z,35.27
2018-03-27T02:04:12.522Z,36.87
2018-03-27T02:06:40.075Z,37.00
2018-03-27T02:09:07.645Z,35.30
2018-03-27T02:11:40.866Z,34.27
2018-03-27T02:14:14.892Z,35.67
2018-03-27T02:16:48.754Z,39.67
2018-03-27T02:19:21.951Z,37.40
2018-03-27T02:21:49.156Z,40.13
2018-03-27T02:24:17.190Z,41.77
2018-03-27T02:26:44.757Z,39.47
2018-03-27T02:29:12.314Z,37.93
2018-03-27T02:31:39.867Z,37.77
2018-03-27T02:34:07.433Z,34.27
2018-03-27T02:36:34.998Z,39.53
2018-03-27T02:39:02.574Z,36.67
2018-03-27T02:41:30.886Z,37.33
2018-03-27T02:43:58.471Z,38.80
2018-03-27T02:46:26.023Z,39.23
2018-03-27T02:48:53.586Z,39.23
2018-03-27T02:51:21.211Z,39.97
2018-03-27T02:53:48.785Z,33.20
2018-03-27T02:56:16.336Z,35.20
2018-03-27T02:58:43.897Z,37.40
2018-03-27T03:01:11.459Z,35.93
2018-03-27T03:03:39.009Z,37.37
2018-03-27T03:06:06.568Z,39.67
2018-03-27T03:08:34.117Z,49.50
2018-03-27T03:11:02.505Z,32.10
2018-03-27T03:13:30.132Z,25.63
2018-03-27T03:15:57.813Z,23.60
2018-03-27T03:18:26.141Z,22.13
2018-03-27T03:20:53.718Z,22.73
2018-03-27T03:23:21.272Z,22.57
2018-03-27T03:25:48.836Z,21.57
2018-03-27T03:28:16.482Z,18.20
2018-03-27T03:30:44.030Z,20.47
2018-03-27T03:33:11.581Z,20.00
2018-03-27T03:35:39.163Z,20.63
2018-03-27T03:38:06.737Z,21.77
2018-03-27T03:40:34.265Z,23.47
2018-03-27T03:43:01.862Z,24.53
2018-03-27T03:45:29.432Z,23.40
2018-03-27T03:47:56.994Z,19.57
2018-03-27T03:50:24.537Z,23.07
2018-03-27T03:52:52.129Z,22.73
2018-03-27T03:55:20.434Z,24.43
2018-03-27T03:57:48.005Z,22.73
2018-03-27T04:00:15.554Z,25.33
2018-03-27T04:02:43.140Z,24.23
2018-03-27T04:05:10.697Z,23.83
2018-03-27T04:07:38.285Z,24.60
2018-03-27T04:10:05.832Z,26.47
2018-03-27T04:12:33.412Z,25.30
2018-03-27T04:15:00.975Z,25.90
2018-03-27T04:17:28.527Z,25.60
2018-03-27T04:19:56.868Z,27.57
2018-03-27T04:22:24.406Z,24.37
2018-03-27T04:24:51.976Z,28.97
2018-03-27T04:27:19.613Z,27.10
2018-03-27T04:29:47.184Z,23.07
2018-03-27T04:32:14.731Z,24.60
2018-03-27T04:34:43.080Z,28.37
2018-03-27T04:37:10.626Z,26.80
2018-03-27T04:39:38.185Z,31.63
2018-03-27T04:42:05.751Z,27.87
2018-03-27T04:44:33.320Z,31.17
2018-03-27T04:47:00.910Z,35.40
2018-03-27T04:49:29.254Z,44.97
2018-03-27T04:51:56.818Z,50.07
2018-03-27T04:54:24.381Z,72.53
2018-03-27T04:56:52.684Z,57.67
2018-03-27T04:59:20.268Z,37.43
2018-03-27T05:01:47.827Z,32.83
2018-03-27T05:04:15.398Z,24.93
2018-03-27T05:06:42.978Z,31.70
2018-03-27T05:09:10.519Z,32.10
2018-03-27T05:11:38.092Z,30.50
2018-03-27T05:14:05.646Z,36.73
2018-03-27T05:16:33.209Z,31.87
2018-03-27T05:19:00.822Z,33.93
2018-03-27T05:21:29.146Z,30.97
2018-03-27T05:23:56.787Z,33.90
2018-03-27T05:26:24.389Z,31.40
2018-03-27T05:28:51.906Z,31.83
2018-03-27T05:31:19.508Z,36.53
2018-03-27T05:33:47.033Z,33.70
2018-03-27T05:36:14.604Z,35.63
2018-03-27T05:38:42.274Z,32.20
2018-03-27T05:41:10.544Z,33.23
2018-03-27T05:43:38.125Z,40.77
2018-03-27T05:46:05.717Z,38.17
2018-03-27T05:48:34.057Z,36.60
2018-03-27T05:51:01.688Z,38.30
2018-03-27T05:53:29.258Z,34.57
2018-03-27T05:55:56.883Z,39.00
2018-03-27T05:58:24.399Z,42.57
2018-03-27T06:00:52.030Z,36.33
2018-03-27T06:03:19.582Z,36.00
2018-03-27T06:05:47.148Z,34.97
2018-03-27T06:08:14.704Z,37.07
2018-03-27T06:10:42.286Z,35.20
2018-03-27T06:13:09.870Z,34.23
2018-03-27T06:15:37.509Z,33.47
2018-03-27T06:18:05.094Z,37.90
2018-03-27T06:20:32.649Z,36.87
2018-03-27T06:23:00.266Z,34.47
2018-03-27T06:25:27.851Z,40.50
2018-03-27T06:27:55.413Z,35.73
2018-03-27T06:30:23.051Z,36.47
2018-03-27T06:32:50.621Z,33.97
2018-03-27T06:35:18.182Z,37.47
2018-03-27T06:37:45.745Z,37.70
2018-03-27T06:40:13.317Z,42.00
2018-03-27T06:42:40.892Z,36.30
2018-03-27T06:45:08.525Z,37.97
2018-03-27T06:47:36.121Z,36.83
2018-03-27T06:50:03.681Z,35.27
2018-03-27T06:52:31.234Z,38.90
2018-03-27T06:54:58.833Z,37.73
2018-03-27T06:57:27.172Z,38.53
2018-03-27T06:59:54.733Z,42.07
2018-03-27T07:02:22.296Z,34.90
2018-03-27T07:04:49.877Z,37.83
2018-03-27T07:07:17.421Z,37.93
2018-03-27T07:09:44.987Z,40.23
2018-03-27T07:12:12.555Z,37.87
2018-03-27T07:14:40.918Z,37.93
2018-03-27T07:17:08.587Z,36.37
2018-03-27T07:19:36.212Z,38.60
2018-03-27T07:22:03.768Z,39.87
2018-03-27T07:24:31.311Z,36.80
2018-03-27T07:26:59.068Z,35.80
2018-03-27T07:29:26.541Z,34.50
2018-03-27T07:31:54.162Z,37.07
2018-03-27T07:34:22.682Z,33.50
2018-03-27T07:36:50.273Z,33.30
2018-03-27T07:39:17.837Z,36.03
2018-03-27T07:41:45.409Z,31.77
2018-03-27T07:44:12.964Z,34.87
2018-03-27T07:46:40.561Z,33.30
2018-03-27T07:49:08.183Z,31.30
2018-03-27T07:51:35.749Z,27.83
2018-03-27T07:54:03.392Z,28.77
2018-03-27T07:56:30.972Z,25.77
2018-03-27T07:58:58.538Z,28.37
2018-03-27T08:01:26.097Z,28.20
2018-03-27T08:03:53.763Z,29.37
2018-03-27T08:06:21.301Z,32.13
2018-03-27T08:08:48.918Z,32.77
2018-03-27T08:11:16.610Z,32.67
2018-03-27T08:13:44.894Z,25.33
2018-03-27T08:16:12.526Z,29.57
2018-03-27T08:18:40.113Z,28.00
2018-03-27T08:21:07.655Z,25.97
2018-03-27T08:23:35.235Z,26.40
2018-03-27T08:26:02.904Z,25.90
2018-03-27T08:28:30.614Z,23.57
2018-03-27T08:30:59.130Z,26.07
2018-03-27T08:33:26.721Z,24.83
2018-03-27T08:35:54.297Z,27.70
2018-03-27T08:38:21.865Z,25.77
2018-03-27T08:40:50.182Z,28.93
2018-03-27T08:43:17.810Z,26.50
2018-03-27T08:45:46.110Z,25.53
2018-03-27T08:48:13.648Z,26.67
2018-03-27T08:50:41.235Z,27.60
2018-03-27T08:53:08.792Z,26.83
2018-03-27T08:55:36.379Z,28.53
2018-03-27T08:58:03.931Z,25.93
2018-03-27T09:00:31.498Z,28.20
2018-03-27T09:02:59.071Z,29.00
2018-03-27T09:05:26.644Z,27.63
2018-03-27T09:07:54.209Z,28.80
2018-03-27T09:10:21.841Z,28.23
2018-03-27T09:12:49.398Z,29.67
2018-03-27T09:15:16.980Z,26.70
2018-03-27T09:17:44.562Z,26.90
2018-03-27T09:20:12.944Z,27.73
2018-03-27T09:22:41.259Z,27.17
2018-03-27T09:25:08.923Z,25.73
2018-03-27T09:27:36.511Z,25.47
2018-03-27T09:30:04.106Z,27.63
2018-03-27T09:32:32.438Z,23.37
2018-03-27T09:35:00.001Z,26.20
2018-03-27T09:37:27.573Z,21.43
2018-03-27T09:39:55.924Z,19.57
2018-03-27T09:42:23.547Z,19.50
2018-03-27T09:44:51.883Z,19.13
2018-03-27T09:47:19.482Z,19.60
2018-03-27T09:49:47.840Z,19.37
2018-03-27T09:52:15.425Z,18.13
2018-03-27T09:54:43.760Z,17.07
2018-03-27T09:57:11.369Z,15.07
2018-03-27T09:59:39.719Z,15.97
2018-03-27T10:02:07.337Z,15.23
2018-03-27T10:04:34.892Z,19.93
2018-03-27T10:07:02.529Z,14.73
2018-03-27T10:09:30.857Z,11.00
2018-03-27T10:11:58.420Z,11.63
2018-03-27T10:14:25.985Z,12.53
2018-03-27T10:16:53.542Z,9.27
2018-03-27T10:19:21.112Z,11.43
2018-03-27T10:21:48.692Z,10.17
2018-03-27T10:24:17.106Z,8.63
2018-03-27T10:26:44.681Z,9.87
2018-03-27T10:29:12.313Z,10.40
2018-03-27T10:31:40.635Z,9.47
2018-03-27T10:34:08.236Z,10.03
2018-03-27T10:36:35.808Z,10.93
2018-03-27T10:39:04.149Z,10.17
2018-03-27T10:41:31.705Z,10.70
2018-03-27T10:43:59.333Z,9.47
2018-03-27T10:46:26.893Z,11.63
2018-03-27T10:48:54.478Z,9.93
2018-03-27T10:51:22.040Z,12.90
2018-03-27T10:53:49.632Z,11.77
2018-03-27T10:56:17.215Z,11.27
2018-03-27T10:58:44.809Z,13.93
2018-03-27T11:01:12.401Z,11.93
2018-03-27T11:03:39.957Z,14.77
2018-03-27T11:06:07.525Z,12.33
2018-03-27T11:08:35.109Z,12.87
2018-03-27T11:11:03.510Z,12.80
2018-03-27T11:13:31.084Z,12.33
2018-03-27T11:15:58.670Z,12.03
2018-03-27T11:18:26.290Z,13.53
2018-03-27T11:20:53.869Z,13.50
2018-03-27T11:23:21.470Z,12.13
2018-03-27T11:25:49.005Z,13.73
2018-03-27T11:28:16.573Z,13.83
2018-03-27T11:30:44.141Z,14.93
2018-03-27T11:33:11.706Z,11.97
2018-03-27T11:35:39.280Z,12.67
2018-03-27T11:38:07.621Z,12.63
2018-03-27T11:40:35.205Z,14.23
2018-03-27T11:43:02.785Z,14.07
2018-03-27T11:45:31.138Z,13.10
2018-03-27T11:47:58.898Z,14.83
2018-03-27T11:50:26.464Z,13.33
2018-03-27T11:52:54.050Z,15.33
2018-03-27T11:55:22.465Z,15.50
2018-03-27T11:57:50.069Z,16.47
2018-03-27T12:00:17.639Z,16.73
2018-03-27T12:02:45.282Z,16.13
2018-03-27T12:05:12.864Z,16.13
2018-03-27T12:07:40.433Z,12.27
2018-03-27T12:10:08.761Z,17.13
2018-03-27T12:12:36.341Z,17.73
2018-03-27T12:15:03.915Z,15.30
2018-03-27T12:17:31.486Z,18.53
2018-03-27T12:19:59.799Z,17.00
2018-03-27T12:22:27.394Z,17.20
2018-03-27T12:24:54.990Z,20.30
2018-03-27T12:27:22.526Z,19.80
2018-03-27T12:29:50.139Z,20.40
2018-03-27T12:32:17.718Z,18.10
2018-03-27T12:34:45.516Z,20.90
2018-03-27T12:37:13.239Z,18.23
2018-03-27T12:39:40.825Z,21.20
2018-03-27T12:42:08.405Z,23.73
2018-03-27T12:44:35.973Z,21.17
2018-03-27T12:47:04.301Z,20.80
2018-03-27T12:49:31.918Z,20.20
2018-03-27T12:52:00.385Z,20.83
2018-03-27T12:54:27.965Z,20.07
2018-03-27T12:56:56.345Z,21.87
2018-03-27T12:59:24.689Z,19.67
2018-03-27T13:01:52.266Z,22.37
2018-03-27T13:04:19.964Z,23.40
2018-03-27T13:06:47.530Z,23.70
2018-03-27T13:09:15.129Z,21.17
2018-03-27T13:11:42.709Z,22.00
2018-03-27T13:14:11.033Z,18.63
2018-03-27T13:16:38.610Z,19.90
2018-03-27T13:19:06.165Z,21.03
2018-03-27T13:21:33.748Z,22.20
2018-03-27T13:24:01.312Z,19.53
2018-03-27T13:26:28.889Z,16.53
2018-03-27T13:28:56.481Z,18.83
2018-03-27T13:31:24.037Z,16.67
2018-03-27T13:33:51.683Z,17.27
2018-03-27T13:36:20.117Z,17.80
2018-03-27T13:38:47.768Z,15.70
2018-03-27T13:41:15.301Z,12.23
2018-03-27T13:43:42.873Z,16.53
2018-03-27T13:46:10.522Z,15.43
2018-03-27T13:48:38.035Z,15.20
2018-03-27T13:51:05.600Z,14.37
2018-03-27T13:53:33.204Z,14.70
2018-03-27T13:56:00.762Z,15.23
2018-03-27T13:58:28.366Z,17.03
2018-03-27T14:00:55.934Z,14.43
2018-03-27T14:03:23.528Z,16.53
2018-03-27T14:05:51.846Z,17.17
2018-03-27T14:08:19.437Z,15.67
2018-03-27T14:10:47.121Z,15.83
2018-03-27T14:13:14.714Z,16.30
2018-03-27T14:15:42.293Z,17.63
2018-03-27T14:18:09.913Z,18.43
2018-03-27T14:20:38.261Z,18.63
2018-03-27T14:23:05.858Z,17.60
2018-03-27T14:25:34.306Z,17.37
2018-03-27T14:28:01.893Z,18.90
2018-03-27T14:30:30.235Z,19.80
2018-03-27T14:32:57.786Z,20.03
2018-03-27T14:35:25.369Z,17.17
2018-03-27T14:37:52.917Z,16.63
2018-03-27T14:40:21.430Z,20.43
2018-03-27T14:42:49.767Z,19.63
2018-03-27T14:45:17.345Z,23.10
2018-03-27T14:47:44.907Z,22.00
2018-03-27T14:50:12.620Z,20.43
2018-03-27T14:52:40.634Z,20.17
2018-03-27T14:55:08.209Z,22.17
2018-03-27T14:57:35.788Z,20.13
2018-03-27T15:00:03.375Z,22.43
2018-03-27T15:02:31.136Z,21.60
2018-03-27T15:04:58.765Z,24.53
2018-03-27T15:07:26.307Z,22.47
2018-03-27T15:09:53.869Z,20.70
2018-03-27T15:12:21.568Z,19.43
2018-03-27T15:14:49.140Z,18.97
2018-03-27T15:17:16.701Z,21.00
2018-03-27T15:19:44.283Z,20.73
2018-03-27T15:22:11.865Z,23.23
2018-03-27T15:24:39.457Z,21.73
2018-03-27T15:27:07.824Z,22.23
2018-03-27T15:29:36.201Z,22.87
2018-03-27T15:32:04.544Z,25.73
2018-03-27T15:34:32.127Z,22.73
2018-03-27T15:37:00.439Z,23.90
2018-03-27T15:39:28.166Z,23.53
2018-03-27T15:41:55.794Z,27.20
2018-03-27T15:44:23.457Z,27.40
2018-03-27T15:46:51.005Z,25.37
2018-03-27T15:49:18.603Z,25.67
2018-03-27T15:51:46.200Z,26.50
2018-03-27T15:54:14.602Z,28.63
2018-03-27T15:56:42.151Z,26.67
2018-03-27T15:59:09.760Z,29.10
2018-03-27T16:01:37.421Z,26.53
2018-03-27T16:04:05.146Z,24.70
2018-03-27T16:06:32.701Z,26.43
2018-03-27T16:09:00.324Z,26.63
2018-03-27T16:11:27.891Z,26.57
2018-03-27T16:13:56.245Z,28.77
2018-03-27T16:16:23.958Z,29.00
2018-03-27T16:18:52.288Z,26.20
2018-03-27T16:21:21.377Z,25.67
2018-03-27T16:23:48.927Z,21.17
2018-03-27T16:26:16.509Z,15.43
2018-03-27T16:28:44.073Z,14.43
2018-03-27T16:31:11.657Z,15.57
2018-03-27T16:33:40.006Z,19.50
2018-03-27T16:36:07.577Z,21.03
2018-03-27T16:38:35.253Z,15.73
2018-03-27T16:41:03.601Z,13.77
2018-03-27T16:43:31.157Z,13.00
2018-03-27T16:45:58.729Z,12.63
2018-03-27T16:48:26.342Z,13.43
2018-03-27T16:50:53.933Z,12.67
2018-03-27T16:53:21.470Z,12.07
2018-03-27T16:55:49.265Z,14.57
2018-03-27T16:58:16.847Z,12.10
2018-03-27T17:00:44.648Z,12.40
2018-03-27T17:03:12.196Z,12.73
2018-03-27T17:05:39.913Z,13.57
2018-03-27T17:08:07.469Z,15.10
2018-03-27T17:10:35.042Z,15.50
2018-03-27T17:13:02.604Z,14.07
2018-03-27T17:15:30.273Z,14.53
2018-03-27T17:17:57.858Z,13.67
2018-03-27T17:20:26.372Z,14.23
2018-03-27T17:22:53.925Z,14.67
2018-03-27T17:25:21.530Z,15.80
2018-03-27T17:27:49.129Z,16.10
2018-03-27T17:30:17.454Z,16.20
2018-03-27T17:32:45.042Z,15.33
2018-03-27T17:35:12.604Z,16.90
2018-03-27T17:37:40.951Z,18.40
2018-03-27T17:40:08.521Z,19.17
2018-03-27T17:42:36.106Z,17.20
2018-03-27T17:45:04.433Z,15.73
2018-03-27T17:47:32.034Z,24.17
2018-03-27T17:49:59.606Z,23.27
2018-03-27T17:52:27.958Z,22.30
2018-03-27T17:54:55.541Z,25.07
2018-03-27T17:57:23.124Z,27.27
2018-03-27T17:59:50.775Z,26.20
2018-03-27T18:02:19.226Z,21.60
2018-03-27T18:04:46.806Z,27.37
2018-03-27T18:07:15.138Z,28.30
2018-03-27T18:09:42.710Z,28.70
2018-03-27T18:12:10.303Z,27.27
2018-03-27T18:14:38.664Z,29.00
2018-03-27T18:17:07.002Z,29.83
2018-03-27T18:19:34.596Z,34.47
2018-03-27T18:22:02.157Z,31.83
2018-03-27T18:24:29.809Z,35.10
2018-03-27T18:26:57.364Z,35.37
2018-03-27T18:29:25.021Z,36.40
2018-03-27T18:31:52.766Z,35.67
2018-03-27T18:34:20.334Z,38.23
2018-03-27T18:36:47.899Z,31.20
2018-03-27T18:39:15.469Z,40.20
2018-03-27T18:41:43.090Z,38.67
2018-03-27T18:44:10.637Z,37.67
2018-03-27T18:46:39.044Z,35.17
2018-03-27T18:49:06.618Z,37.10
2018-03-27T18:51:34.290Z,43.63
2018-03-27T18:54:01.844Z,40.90
2018-03-27T18:56:29.433Z,38.87
2018-03-27T18:58:57.013Z,45.53
2018-03-27T19:01:24.601Z,40.40
2018-03-27T19:03:52.179Z,41.00
2018-03-27T19:06:19.788Z,54.43
2018-03-27T19:08:47.392Z,40.53
2018-03-27T19:11:14.979Z,46.20
2018-03-27T19:13:42.561Z,43.03
2018-03-27T19:16:10.161Z,45.53
2018-03-27T19:18:37.793Z,42.03
2018-03-27T19:21:05.349Z,47.07
2018-03-27T19:23:32.941Z,42.40
2018-03-27T19:26:01.346Z,39.50
2018-03-27T19:28:29.001Z,39.53
2018-03-27T19:30:56.628Z,46.77
2018-03-27T19:33:24.162Z,42.57
2018-03-27T19:35:51.754Z,43.77
2018-03-27T19:38:20.287Z,44.67
2018-03-27T19:40:47.857Z,48.03
2018-03-27T19:43:15.460Z,38.97
2018-03-27T19:45:43.798Z,44.23
2018-03-27T19:48:11.522Z,39.27
2018-03-27T19:50:39.107Z,36.57
2018-03-27T19:53:06.839Z,39.47
2018-03-27T19:55:34.412Z,40.53
2018-03-27T19:58:01.993Z,45.37
2018-03-27T20:00:29.558Z,37.90
2018-03-27T20:02:57.161Z,39.43
2018-03-27T20:05:25.517Z,36.63
2018-03-27T20:07:53.073Z,41.63
2018-03-27T20:10:20.646Z,38.83
2018-03-27T20:12:48.261Z,40.67
2018-03-27T20:15:15.901Z,47.43
2018-03-27T20:17:43.461Z,46.53
2018-03-27T20:20:11.138Z,36.90
2018-03-27T20:22:38.769Z,35.50
2018-03-27T20:25:07.180Z,42.57
2018-03-27T20:27:34.788Z,38.13
2018-03-27T20:30:02.373Z,42.53
2018-03-27T20:32:30.777Z,34.87
2018-03-27T20:34:58.342Z,37.70
2018-03-27T20:37:25.927Z,34.33
2018-03-27T20:39:53.516Z,36.43
2018-03-27T20:42:21.077Z,33.83
2018-03-27T20:44:49.443Z,37.50
2018-03-27T20:47:17.001Z,29.50
2018-03-27T20:49:44.590Z,31.50
2018-03-27T20:52:13.032Z,31.23
2018-03-27T20:54:40.597Z,39.10
2018-03-27T20:57:08.192Z,33.40
2018-03-27T20:59:35.783Z,31.83
2018-03-27T21:02:03.367Z,34.87
2018-03-27T21:04:30.961Z,33.97
2018-03-27T21:06:59.305Z,38.53
2018-03-27T21:09:26.921Z,32.80
2018-03-27T21:11:54.495Z,32.23
2018-03-27T21:14:22.093Z,32.03
2018-03-27T21:16:49.690Z,33.70
2018-03-27T21:19:18.053Z,34.93
2018-03-27T21:21:45.767Z,34.50
2018-03-27T21:24:13.354Z,31.73
2018-03-27T21:26:40.982Z,40.70
2018-03-27T21:29:08.561Z,34.50
2018-03-27T21:31:36.172Z,39.23
2018-03-27T21:34:03.750Z,36.47
2018-03-27T21:36:31.337Z,36.90
2018-03-27T21:38:58.918Z,30.13
2018-03-27T21:41:26.547Z,37.83
2018-03-27T21:43:54.113Z,32.03
2018-03-27T21:46:21.708Z,32.40
2018-03-27T21:48:49.394Z,34.10
2018-03-27T21:51:17.798Z,29.63
2018-03-27T21:53:45.637Z,37.87
2018-03-27T21:56:13.213Z,33.20
2018-03-27T21:58:41.596Z,32.27
2018-03-27T22:01:09.920Z,34.43
2018-03-27T22:03:40.305Z,39.57
2018-03-27T22:06:07.926Z,33.70
2018-03-27T22:08:35.593Z,30.50
2018-03-27T22:11:03.168Z,27.13
2018-03-27T22:13:30.766Z,34.40
2018-03-27T22:15:58.349Z,30.43
2018-03-27T22:18:25.906Z,31.17
2018-03-27T22:20:53.494Z,28.70
2018-03-27T22:23:21.130Z,31.17
2018-03-27T22:25:48.714Z,30.60
2018-03-27T22:28:16.281Z,27.17
2018-03-27T22:30:43.885Z,29.73
2018-03-27T22:33:11.428Z,33.57
2018-03-27T22:35:39.801Z,31.30
2018-03-27T22:38:08.165Z,29.30
2018-03-27T22:40:36.619Z,27.77
2018-03-27T22:43:04.193Z,28.77
2018-03-27T22:45:31.796Z,29.57
2018-03-27T22:47:59.362Z,27.63
2018-03-27T22:50:26.964Z,31.87
2018-03-27T22:52:54.534Z,35.63
2018-03-27T22:55:22.106Z,36.80
2018-03-27T22:57:49.654Z,27.30
2018-03-27T23:00:19.018Z,28.60
2018-03-27T23:02:46.857Z,33.17
2018-03-27T23:05:15.264Z,36.67
2018-03-27T23:07:42.849Z,29.97
2018-03-27T23:10:10.425Z,29.93
2018-03-27T23:12:38.151Z,29.90
2018-03-27T23:15:05.680Z,29.00
2018-03-27T23:17:33.248Z,32.57
2018-03-27T23:20:00.808Z,34.43
2018-03-27T23:22:31.336Z,34.33
2018-03-27T23:24:58.948Z,30.47
2018-03-27T23:27:26.553Z,38.03
2018-03-27T23:29:54.159Z,37.70
2018-03-27T23:32:21.725Z,36.43
2018-03-27T23:34:49.323Z,33.77
2018-03-27T23:37:17.717Z,30.00
2018-03-27T23:39:45.279Z,28.17
2018-03-27T23:42:12.862Z,41.83
2018-03-27T23:44:40.596Z,45.23
2018-03-27T23:47:08.968Z,30.80
2018-03-27T23:49:37.303Z,32.40
2018-03-27T23:52:04.890Z,40.37
2018-03-27T23:54:32.486Z,32.43
2018-03-27T23:57:00.064Z,29.10
2018-03-27T23:59:27.698Z,30.93
